sensor_id;sensor_type;location;lat;lon;timestamp;temperature;humidity
17489;DHT22;8861;52.644;4.734;2023-02-21T00:02:21;9.70;99.90
17489;DHT22;8861;52.644;4.734;2023-02-21T00:05:05;9.70;99.90
17489;DHT22;8861;52.644;4.734;2023-02-21T00:07:51;9.70;99.90
17489;DHT22;8861;52.644;4.734;2023-02-21T00:10:35;9.70;99.90
17489;DHT22;8861;52.644;4.734;2023-02-21T00:13:27;9.70;99.90
17489;DHT22;8861;52.644;4.734;2023-02-21T00:16:14;9.70;99.90
17489;DHT22;8861;52.644;4.734;2023-02-21T00:18:59;9.70;99.90
17489;DHT22;8861;52.644;4.734;2023-02-21T00:21:45;9.70;99.90
17489;DHT22;8861;52.644;4.734;2023-02-21T00:24:31;9.70;99.90
17489;DHT22;8861;52.644;4.734;2023-02-21T00:27:16;9.60;99.90
17489;DHT22;8861;52.644;4.734;2023-02-21T00:30:03;9.70;99.90
17489;DHT22;8861;52.644;4.734;2023-02-21T00:32:49;9.70;99.90
17489;DHT22;8861;52.644;4.734;2023-02-21T00:35:34;9.70;99.90
17489;DHT22;8861;52.644;4.734;2023-02-21T00:38:21;9.70;99.90
17489;DHT22;8861;52.644;4.734;2023-02-21T00:41:08;9.70;99.90
17489;DHT22;8861;52.644;4.734;2023-02-21T00:43:53;9.70;99.90
17489;DHT22;8861;52.644;4.734;2023-02-21T00:46:38;9.70;99.90
17489;DHT22;8861;52.644;4.734;2023-02-21T00:49:22;9.70;99.90
17489;DHT22;8861;52.644;4.734;2023-02-21T00:52:09;9.70;99.90
17489;DHT22;8861;52.644;4.734;2023-02-21T00:54:53;9.60;99.90
17489;DHT22;8861;52.644;4.734;2023-02-21T00:57:44;9.70;99.90
17489;DHT22;8861;52.644;4.734;2023-02-21T01:00:35;9.70;99.90
17489;DHT22;8861;52.644;4.734;2023-02-21T01:03:19;9.60;99.90
17489;DHT22;8861;52.644;4.734;2023-02-21T01:06:08;9.60;99.90
17489;DHT22;8861;52.644;4.734;2023-02-21T01:08:53;9.60;99.90
17489;DHT22;8861;52.644;4.734;2023-02-21T01:11:38;9.60;99.90
17489;DHT22;8861;52.644;4.734;2023-02-21T01:14:27;9.60;99.90
17489;DHT22;8861;52.644;4.734;2023-02-21T01:17:12;9.60;99.90
17489;DHT22;8861;52.644;4.734;2023-02-21T01:19:59;9.60;99.90
17489;DHT22;8861;52.644;4.734;2023-02-21T01:22:46;9.60;99.90
17489;DHT22;8861;52.644;4.734;2023-02-21T01:25:35;9.60;99.90
17489;DHT22;8861;52.644;4.734;2023-02-21T01:28:19;9.70;99.90
17489;DHT22;8861;52.644;4.734;2023-02-21T01:31:05;9.60;99.90
17489;DHT22;8861;52.644;4.734;2023-02-21T01:33:49;9.60;99.90
17489;DHT22;8861;52.644;4.734;2023-02-21T01:36:34;9.60;99.90
17489;DHT22;8861;52.644;4.734;2023-02-21T01:39:18;9.60;99.90
17489;DHT22;8861;52.644;4.734;2023-02-21T01:42:03;9.60;99.90
17489;DHT22;8861;52.644;4.734;2023-02-21T01:44:47;9.60;99.90
17489;DHT22;8861;52.644;4.734;2023-02-21T01:47:33;9.60;99.90
17489;DHT22;8861;52.644;4.734;2023-02-21T01:50:21;9.60;99.90
17489;DHT22;8861;52.644;4.734;2023-02-21T01:53:09;9.60;99.90
17489;DHT22;8861;52.644;4.734;2023-02-21T01:55:55;9.60;99.90
17489;DHT22;8861;52.644;4.734;2023-02-21T01:58:40;9.60;99.90
17489;DHT22;8861;52.644;4.734;2023-02-21T02:01:32;9.60;99.90
17489;DHT22;8861;52.644;4.734;2023-02-21T02:04:19;9.60;99.90
17489;DHT22;8861;52.644;4.734;2023-02-21T02:07:04;9.60;99.90
17489;DHT22;8861;52.644;4.734;2023-02-21T02:09:48;9.60;99.90
17489;DHT22;8861;52.644;4.734;2023-02-21T02:13:02;9.60;99.90
17489;DHT22;8861;52.644;4.734;2023-02-21T02:15:39;9.60;99.90
17489;DHT22;8861;52.644;4.734;2023-02-21T02:18:30;9.60;99.90
17489;DHT22;8861;52.644;4.734;2023-02-21T02:27:24;9.60;99.90
17489;DHT22;8861;52.644;4.734;2023-02-21T02:36:09;9.60;99.90
17489;DHT22;8861;52.644;4.734;2023-02-21T02:39:11;9.60;99.90
17489;DHT22;8861;52.644;4.734;2023-02-21T02:41:54;9.60;99.90
17489;DHT22;8861;52.644;4.734;2023-02-21T02:44:27;9.70;99.90
17489;DHT22;8861;52.644;4.734;2023-02-21T02:46:57;9.70;99.90
17489;DHT22;8861;52.644;4.734;2023-02-21T02:49:28;9.70;99.90
17489;DHT22;8861;52.644;4.734;2023-02-21T02:52:02;9.70;99.90
17489;DHT22;8861;52.644;4.734;2023-02-21T02:54:29;9.70;99.90
17489;DHT22;8861;52.644;4.734;2023-02-21T02:56:57;9.70;99.90
17489;DHT22;8861;52.644;4.734;2023-02-21T02:59:26;9.80;99.90
17489;DHT22;8861;52.644;4.734;2023-02-21T03:02:13;9.80;99.90
17489;DHT22;8861;52.644;4.734;2023-02-21T03:05:07;9.70;99.90
17489;DHT22;8861;52.644;4.734;2023-02-21T03:07:44;9.70;99.90
17489;DHT22;8861;52.644;4.734;2023-02-21T03:10:19;9.70;99.90
17489;DHT22;8861;52.644;4.734;2023-02-21T03:12:49;9.70;99.90
17489;DHT22;8861;52.644;4.734;2023-02-21T03:15:19;9.80;99.90
17489;DHT22;8861;52.644;4.734;2023-02-21T03:17:52;9.80;99.90
17489;DHT22;8861;52.644;4.734;2023-02-21T03:20:22;9.80;99.90
17489;DHT22;8861;52.644;4.734;2023-02-21T03:22:53;9.80;99.90
17489;DHT22;8861;52.644;4.734;2023-02-21T03:25:21;9.80;99.90
17489;DHT22;8861;52.644;4.734;2023-02-21T03:27:51;9.80;99.90
17489;DHT22;8861;52.644;4.734;2023-02-21T03:30:20;9.80;99.90
17489;DHT22;8861;52.644;4.734;2023-02-21T03:32:49;9.80;99.90
17489;DHT22;8861;52.644;4.734;2023-02-21T03:35:17;9.80;99.90
17489;DHT22;8861;52.644;4.734;2023-02-21T03:37:46;9.80;99.90
17489;DHT22;8861;52.644;4.734;2023-02-21T03:40:17;9.80;99.90
17489;DHT22;8861;52.644;4.734;2023-02-21T03:42:48;9.80;99.90
17489;DHT22;8861;52.644;4.734;2023-02-21T03:45:15;9.80;99.90
17489;DHT22;8861;52.644;4.734;2023-02-21T03:47:42;9.80;99.90
17489;DHT22;8861;52.644;4.734;2023-02-21T03:50:10;9.80;99.90
17489;DHT22;8861;52.644;4.734;2023-02-21T03:52:37;9.80;99.90
17489;DHT22;8861;52.644;4.734;2023-02-21T03:55:04;9.80;99.90
17489;DHT22;8861;52.644;4.734;2023-02-21T03:57:33;9.70;99.90
17489;DHT22;8861;52.644;4.734;2023-02-21T04:00:00;9.70;99.90
17489;DHT22;8861;52.644;4.734;2023-02-21T04:02:27;9.70;99.90
17489;DHT22;8861;52.644;4.734;2023-02-21T04:04:54;9.70;99.90
17489;DHT22;8861;52.644;4.734;2023-02-21T04:07:21;9.70;99.90
17489;DHT22;8861;52.644;4.734;2023-02-21T04:09:48;9.70;99.90
17489;DHT22;8861;52.644;4.734;2023-02-21T04:12:16;9.70;99.90
17489;DHT22;8861;52.644;4.734;2023-02-21T04:14:44;9.70;99.90
17489;DHT22;8861;52.644;4.734;2023-02-21T04:17:11;9.70;99.90
17489;DHT22;8861;52.644;4.734;2023-02-21T04:19:38;9.70;99.90
17489;DHT22;8861;52.644;4.734;2023-02-21T04:22:05;9.70;99.90
17489;DHT22;8861;52.644;4.734;2023-02-21T04:24:32;9.60;99.90
17489;DHT22;8861;52.644;4.734;2023-02-21T04:26:59;9.60;99.90
17489;DHT22;8861;52.644;4.734;2023-02-21T04:29:26;9.70;99.90
17489;DHT22;8861;52.644;4.734;2023-02-21T04:31:55;9.60;99.90
17489;DHT22;8861;52.644;4.734;2023-02-21T04:34:22;9.70;99.90
17489;DHT22;8861;52.644;4.734;2023-02-21T04:36:49;9.60;99.90
17489;DHT22;8861;52.644;4.734;2023-02-21T04:39:16;9.60;99.90
17489;DHT22;8861;52.644;4.734;2023-02-21T04:41:43;9.60;99.90
17489;DHT22;8861;52.644;4.734;2023-02-21T04:44:11;9.60;99.90
17489;DHT22;8861;52.644;4.734;2023-02-21T04:46:38;9.70;99.90
17489;DHT22;8861;52.644;4.734;2023-02-21T04:49:06;9.70;99.90
17489;DHT22;8861;52.644;4.734;2023-02-21T04:51:33;9.70;99.90
17489;DHT22;8861;52.644;4.734;2023-02-21T04:54:00;9.60;99.90
17489;DHT22;8861;52.644;4.734;2023-02-21T04:56:27;9.70;99.90
17489;DHT22;8861;52.644;4.734;2023-02-21T04:58:54;9.70;99.90
17489;DHT22;8861;52.644;4.734;2023-02-21T05:01:22;9.70;99.90
17489;DHT22;8861;52.644;4.734;2023-02-21T05:03:52;9.70;99.90
17489;DHT22;8861;52.644;4.734;2023-02-21T05:06:21;9.70;99.90
17489;DHT22;8861;52.644;4.734;2023-02-21T05:08:49;9.70;99.90
17489;DHT22;8861;52.644;4.734;2023-02-21T05:11:17;9.70;99.90
17489;DHT22;8861;52.644;4.734;2023-02-21T05:13:46;9.80;99.90
17489;DHT22;8861;52.644;4.734;2023-02-21T05:16:13;9.80;99.90
17489;DHT22;8861;52.644;4.734;2023-02-21T05:18:41;9.80;99.90
17489;DHT22;8861;52.644;4.734;2023-02-21T05:21:08;9.80;99.90
17489;DHT22;8861;52.644;4.734;2023-02-21T05:23:45;9.80;99.90
17489;DHT22;8861;52.644;4.734;2023-02-21T05:26:22;9.80;99.90
17489;DHT22;8861;52.644;4.734;2023-02-21T05:28:50;9.80;99.90
17489;DHT22;8861;52.644;4.734;2023-02-21T05:31:18;9.80;99.90
17489;DHT22;8861;52.644;4.734;2023-02-21T05:33:46;9.80;99.90
17489;DHT22;8861;52.644;4.734;2023-02-21T05:36:13;9.90;99.90
17489;DHT22;8861;52.644;4.734;2023-02-21T05:38:49;9.90;99.90
17489;DHT22;8861;52.644;4.734;2023-02-21T05:41:17;9.90;99.90
17489;DHT22;8861;52.644;4.734;2023-02-21T05:43:44;9.90;99.90
17489;DHT22;8861;52.644;4.734;2023-02-21T05:46:20;9.90;99.90
17489;DHT22;8861;52.644;4.734;2023-02-21T05:48:48;9.90;99.90
17489;DHT22;8861;52.644;4.734;2023-02-21T05:51:15;9.80;99.90
17489;DHT22;8861;52.644;4.734;2023-02-21T05:53:42;9.80;99.90
17489;DHT22;8861;52.644;4.734;2023-02-21T05:56:11;9.90;99.90
17489;DHT22;8861;52.644;4.734;2023-02-21T05:58:38;9.80;99.90
17489;DHT22;8861;52.644;4.734;2023-02-21T06:01:05;9.80;99.90
17489;DHT22;8861;52.644;4.734;2023-02-21T06:03:32;9.80;99.90
17489;DHT22;8861;52.644;4.734;2023-02-21T06:05:59;9.80;99.90
17489;DHT22;8861;52.644;4.734;2023-02-21T06:08:26;9.80;99.90
17489;DHT22;8861;52.644;4.734;2023-02-21T06:10:53;9.70;99.90
17489;DHT22;8861;52.644;4.734;2023-02-21T06:13:22;9.70;99.90
17489;DHT22;8861;52.644;4.734;2023-02-21T06:15:48;9.70;99.90
17489;DHT22;8861;52.644;4.734;2023-02-21T06:18:16;9.70;99.90
17489;DHT22;8861;52.644;4.734;2023-02-21T06:20:43;9.70;99.90
17489;DHT22;8861;52.644;4.734;2023-02-21T06:23:10;9.70;99.90
17489;DHT22;8861;52.644;4.734;2023-02-21T06:25:37;9.70;99.90
17489;DHT22;8861;52.644;4.734;2023-02-21T06:28:04;9.60;99.90
17489;DHT22;8861;52.644;4.734;2023-02-21T06:30:32;9.60;99.90
17489;DHT22;8861;52.644;4.734;2023-02-21T06:32:59;9.60;99.90
17489;DHT22;8861;52.644;4.734;2023-02-21T06:35:26;9.60;99.90
17489;DHT22;8861;52.644;4.734;2023-02-21T06:37:53;9.60;99.90
17489;DHT22;8861;52.644;4.734;2023-02-21T06:40:20;9.60;99.90
17489;DHT22;8861;52.644;4.734;2023-02-21T06:42:47;9.60;99.90
17489;DHT22;8861;52.644;4.734;2023-02-21T06:45:14;9.60;99.90
17489;DHT22;8861;52.644;4.734;2023-02-21T06:47:45;9.60;99.90
17489;DHT22;8861;52.644;4.734;2023-02-21T06:50:12;9.60;99.90
17489;DHT22;8861;52.644;4.734;2023-02-21T06:52:39;9.60;99.90
17489;DHT22;8861;52.644;4.734;2023-02-21T06:55:06;9.50;99.90
17489;DHT22;8861;52.644;4.734;2023-02-21T06:57:34;9.50;99.90
17489;DHT22;8861;52.644;4.734;2023-02-21T07:00:01;9.50;99.90
17489;DHT22;8861;52.644;4.734;2023-02-21T07:02:28;9.50;99.90
17489;DHT22;8861;52.644;4.734;2023-02-21T07:04:56;9.50;99.90
17489;DHT22;8861;52.644;4.734;2023-02-21T07:07:23;9.60;99.90
17489;DHT22;8861;52.644;4.734;2023-02-21T07:09:50;9.50;99.90
17489;DHT22;8861;52.644;4.734;2023-02-21T07:12:17;9.50;99.90
17489;DHT22;8861;52.644;4.734;2023-02-21T07:14:44;9.50;99.90
17489;DHT22;8861;52.644;4.734;2023-02-21T07:17:11;9.50;99.90
17489;DHT22;8861;52.644;4.734;2023-02-21T07:19:38;9.50;99.90
17489;DHT22;8861;52.644;4.734;2023-02-21T07:22:08;9.50;99.90
17489;DHT22;8861;52.644;4.734;2023-02-21T07:24:35;9.60;99.90
17489;DHT22;8861;52.644;4.734;2023-02-21T07:27:03;9.60;99.90
17489;DHT22;8861;52.644;4.734;2023-02-21T07:29:30;9.60;99.90
17489;DHT22;8861;52.644;4.734;2023-02-21T07:31:57;9.60;99.90
17489;DHT22;8861;52.644;4.734;2023-02-21T07:34:24;9.60;99.90
17489;DHT22;8861;52.644;4.734;2023-02-21T07:36:51;9.70;99.90
17489;DHT22;8861;52.644;4.734;2023-02-21T07:39:19;9.70;99.90
17489;DHT22;8861;52.644;4.734;2023-02-21T07:41:46;9.70;99.90
17489;DHT22;8861;52.644;4.734;2023-02-21T07:44:13;9.70;99.90
17489;DHT22;8861;52.644;4.734;2023-02-21T07:46:40;9.70;99.90
17489;DHT22;8861;52.644;4.734;2023-02-21T07:49:11;9.80;99.90
17489;DHT22;8861;52.644;4.734;2023-02-21T07:51:38;9.80;99.90
17489;DHT22;8861;52.644;4.734;2023-02-21T07:54:05;9.80;99.90
17489;DHT22;8861;52.644;4.734;2023-02-21T07:56:33;9.80;99.90
17489;DHT22;8861;52.644;4.734;2023-02-21T07:59:00;9.80;99.90
17489;DHT22;8861;52.644;4.734;2023-02-21T08:01:27;9.80;99.90
17489;DHT22;8861;52.644;4.734;2023-02-21T08:03:54;9.90;99.90
17489;DHT22;8861;52.644;4.734;2023-02-21T08:06:21;9.90;99.90
17489;DHT22;8861;52.644;4.734;2023-02-21T08:08:48;10.00;99.90
17489;DHT22;8861;52.644;4.734;2023-02-21T08:11:15;10.00;99.90
17489;DHT22;8861;52.644;4.734;2023-02-21T08:13:44;10.10;99.90
17489;DHT22;8861;52.644;4.734;2023-02-21T08:16:11;10.10;99.90
17489;DHT22;8861;52.644;4.734;2023-02-21T08:18:38;10.10;99.90
17489;DHT22;8861;52.644;4.734;2023-02-21T08:21:08;10.20;99.90
17489;DHT22;8861;52.644;4.734;2023-02-21T08:23:36;10.20;99.90
17489;DHT22;8861;52.644;4.734;2023-02-21T08:26:04;10.30;99.90
17489;DHT22;8861;52.644;4.734;2023-02-21T08:28:33;10.30;99.90
17489;DHT22;8861;52.644;4.734;2023-02-21T08:31:14;10.30;99.90
17489;DHT22;8861;52.644;4.734;2023-02-21T08:33:50;10.40;99.90
17489;DHT22;8861;52.644;4.734;2023-02-21T08:36:21;10.40;99.90
17489;DHT22;8861;52.644;4.734;2023-02-21T08:38:56;10.40;99.90
17489;DHT22;8861;52.644;4.734;2023-02-21T08:41:23;10.40;99.90
17489;DHT22;8861;52.644;4.734;2023-02-21T08:43:51;10.40;99.90
17489;DHT22;8861;52.644;4.734;2023-02-21T08:46:19;10.50;99.90
17489;DHT22;8861;52.644;4.734;2023-02-21T08:48:46;10.60;99.90
17489;DHT22;8861;52.644;4.734;2023-02-21T08:51:13;10.60;99.90
17489;DHT22;8861;52.644;4.734;2023-02-21T08:53:40;10.60;99.90
17489;DHT22;8861;52.644;4.734;2023-02-21T08:56:08;10.70;99.90
17489;DHT22;8861;52.644;4.734;2023-02-21T08:58:35;10.70;99.90
17489;DHT22;8861;52.644;4.734;2023-02-21T09:01:02;10.80;99.90
17489;DHT22;8861;52.644;4.734;2023-02-21T09:03:31;10.80;99.90
17489;DHT22;8861;52.644;4.734;2023-02-21T09:05:59;10.90;99.90
17489;DHT22;8861;52.644;4.734;2023-02-21T09:08:28;10.90;99.90
17489;DHT22;8861;52.644;4.734;2023-02-21T09:10:56;11.00;99.90
17489;DHT22;8861;52.644;4.734;2023-02-21T09:13:25;11.00;99.90
17489;DHT22;8861;52.644;4.734;2023-02-21T09:15:52;11.10;99.90
17489;DHT22;8861;52.644;4.734;2023-02-21T09:18:19;11.10;99.90
17489;DHT22;8861;52.644;4.734;2023-02-21T09:20:47;11.10;99.90
17489;DHT22;8861;52.644;4.734;2023-02-21T09:23:16;11.10;99.90
17489;DHT22;8861;52.644;4.734;2023-02-21T09:25:46;11.10;99.90
17489;DHT22;8861;52.644;4.734;2023-02-21T09:28:21;11.20;99.90
17489;DHT22;8861;52.644;4.734;2023-02-21T09:30:49;11.20;99.90
17489;DHT22;8861;52.644;4.734;2023-02-21T09:33:16;11.20;99.90
17489;DHT22;8861;52.644;4.734;2023-02-21T09:35:44;11.20;99.90
17489;DHT22;8861;52.644;4.734;2023-02-21T09:38:12;11.20;99.90
17489;DHT22;8861;52.644;4.734;2023-02-21T09:40:42;11.30;99.90
17489;DHT22;8861;52.644;4.734;2023-02-21T09:43:15;11.30;99.90
17489;DHT22;8861;52.644;4.734;2023-02-21T09:46:03;11.30;99.90
17489;DHT22;8861;52.644;4.734;2023-02-21T09:48:43;11.40;99.90
17489;DHT22;8861;52.644;4.734;2023-02-21T09:51:13;11.40;99.90
17489;DHT22;8861;52.644;4.734;2023-02-21T09:53:45;11.50;99.90
17489;DHT22;8861;52.644;4.734;2023-02-21T09:56:19;11.50;99.90
17489;DHT22;8861;52.644;4.734;2023-02-21T09:58:48;11.50;99.90
17489;DHT22;8861;52.644;4.734;2023-02-21T10:01:23;11.50;99.90
17489;DHT22;8861;52.644;4.734;2023-02-21T10:03:57;11.50;99.90
17489;DHT22;8861;52.644;4.734;2023-02-21T10:06:37;11.50;99.90
17489;DHT22;8861;52.644;4.734;2023-02-21T10:09:15;11.50;99.90
17489;DHT22;8861;52.644;4.734;2023-02-21T10:11:53;11.60;99.90
17489;DHT22;8861;52.644;4.734;2023-02-21T10:14:29;11.50;99.90
17489;DHT22;8861;52.644;4.734;2023-02-21T10:17:02;11.50;99.90
17489;DHT22;8861;52.644;4.734;2023-02-21T10:19:32;11.60;99.90
17489;DHT22;8861;52.644;4.734;2023-02-21T10:22:08;11.50;99.90
17489;DHT22;8861;52.644;4.734;2023-02-21T10:24:37;11.50;99.90
17489;DHT22;8861;52.644;4.734;2023-02-21T10:27:07;11.50;99.90
17489;DHT22;8861;52.644;4.734;2023-02-21T10:29:39;11.50;99.90
17489;DHT22;8861;52.644;4.734;2023-02-21T10:32:08;11.50;99.90
17489;DHT22;8861;52.644;4.734;2023-02-21T10:34:35;11.50;99.90
17489;DHT22;8861;52.644;4.734;2023-02-21T10:37:10;11.50;99.90
17489;DHT22;8861;52.644;4.734;2023-02-21T10:39:48;11.50;99.90
17489;DHT22;8861;52.644;4.734;2023-02-21T10:42:23;11.40;99.90
17489;DHT22;8861;52.644;4.734;2023-02-21T10:44:52;11.40;99.90
17489;DHT22;8861;52.644;4.734;2023-02-21T10:47:22;11.40;99.90
17489;DHT22;8861;52.644;4.734;2023-02-21T10:49:58;11.40;99.90
17489;DHT22;8861;52.644;4.734;2023-02-21T10:52:26;11.40;99.90
17489;DHT22;8861;52.644;4.734;2023-02-21T10:55:05;11.50;99.90
17489;DHT22;8861;52.644;4.734;2023-02-21T10:57:57;11.60;99.90
17489;DHT22;8861;52.644;4.734;2023-02-21T11:00:31;11.50;99.90
17489;DHT22;8861;52.644;4.734;2023-02-21T11:03:06;11.60;99.90
17489;DHT22;8861;52.644;4.734;2023-02-21T11:05:38;11.50;99.90
17489;DHT22;8861;52.644;4.734;2023-02-21T11:08:07;11.50;99.90
17489;DHT22;8861;52.644;4.734;2023-02-21T11:10:37;11.50;99.90
17489;DHT22;8861;52.644;4.734;2023-02-21T11:13:13;11.50;99.90
17489;DHT22;8861;52.644;4.734;2023-02-21T11:15:41;11.60;99.90
17489;DHT22;8861;52.644;4.734;2023-02-21T11:18:15;11.60;99.90
17489;DHT22;8861;52.644;4.734;2023-02-21T11:20:42;11.60;99.90
17489;DHT22;8861;52.644;4.734;2023-02-21T11:23:22;11.70;99.90
17489;DHT22;8861;52.644;4.734;2023-02-21T11:25:57;11.70;99.90
17489;DHT22;8861;52.644;4.734;2023-02-21T11:28:26;11.80;99.90
17489;DHT22;8861;52.644;4.734;2023-02-21T11:31:12;11.90;99.90
17489;DHT22;8861;52.644;4.734;2023-02-21T11:33:47;12.00;99.90
17489;DHT22;8861;52.644;4.734;2023-02-21T11:36:17;12.10;99.90
17489;DHT22;8861;52.644;4.734;2023-02-21T11:38:59;12.10;99.90
17489;DHT22;8861;52.644;4.734;2023-02-21T11:41:30;12.20;99.90
17489;DHT22;8861;52.644;4.734;2023-02-21T11:44:00;12.20;99.90
17489;DHT22;8861;52.644;4.734;2023-02-21T11:46:34;12.20;99.90
17489;DHT22;8861;52.644;4.734;2023-02-21T11:49:07;12.30;99.90
17489;DHT22;8861;52.644;4.734;2023-02-21T11:51:41;12.20;99.90
17489;DHT22;8861;52.644;4.734;2023-02-21T11:54:09;12.10;99.90
17489;DHT22;8861;52.644;4.734;2023-02-21T11:56:55;12.10;99.90
17489;DHT22;8861;52.644;4.734;2023-02-21T11:59:31;12.10;99.90
17489;DHT22;8861;52.644;4.734;2023-02-21T12:05:17;12.00;99.90
17489;DHT22;8861;52.644;4.734;2023-02-21T12:07:53;11.90;99.90
17489;DHT22;8861;52.644;4.734;2023-02-21T12:10:35;11.90;99.90
17489;DHT22;8861;52.644;4.734;2023-02-21T12:13:17;11.80;99.90
17489;DHT22;8861;52.644;4.734;2023-02-21T12:16:17;11.80;99.90
17489;DHT22;8861;52.644;4.734;2023-02-21T12:22:46;11.70;99.90
17489;DHT22;8861;52.644;4.734;2023-02-21T12:25:22;11.70;99.90
17489;DHT22;8861;52.644;4.734;2023-02-21T12:27:57;11.70;99.90
17489;DHT22;8861;52.644;4.734;2023-02-21T12:30:47;11.60;99.90
17489;DHT22;8861;52.644;4.734;2023-02-21T12:33:29;11.50;99.90
17489;DHT22;8861;52.644;4.734;2023-02-21T12:36:19;11.40;99.90
17489;DHT22;8861;52.644;4.734;2023-02-21T12:39:03;11.40;99.90
17489;DHT22;8861;52.644;4.734;2023-02-21T12:41:54;11.40;99.90
17489;DHT22;8861;52.644;4.734;2023-02-21T12:44:31;11.30;99.90
17489;DHT22;8861;52.644;4.734;2023-02-21T12:47:06;11.30;99.90
17489;DHT22;8861;52.644;4.734;2023-02-21T12:49:41;11.20;99.90
17489;DHT22;8861;52.644;4.734;2023-02-21T12:52:14;11.30;99.90
17489;DHT22;8861;52.644;4.734;2023-02-21T12:54:48;11.30;99.90
17489;DHT22;8861;52.644;4.734;2023-02-21T12:57:18;11.30;99.90
17489;DHT22;8861;52.644;4.734;2023-02-21T12:59:54;11.30;99.90
17489;DHT22;8861;52.644;4.734;2023-02-21T13:02:33;11.30;99.90
17489;DHT22;8861;52.644;4.734;2023-02-21T13:05:08;11.30;99.90
17489;DHT22;8861;52.644;4.734;2023-02-21T13:07:42;11.30;99.90
17489;DHT22;8861;52.644;4.734;2023-02-21T13:10:15;11.30;99.90
17489;DHT22;8861;52.644;4.734;2023-02-21T13:12:48;11.30;99.90
17489;DHT22;8861;52.644;4.734;2023-02-21T13:15:19;11.30;99.90
17489;DHT22;8861;52.644;4.734;2023-02-21T13:17:59;11.20;99.90
17489;DHT22;8861;52.644;4.734;2023-02-21T13:20:30;11.20;99.90
17489;DHT22;8861;52.644;4.734;2023-02-21T13:25:55;11.30;99.90
17489;DHT22;8861;52.644;4.734;2023-02-21T13:28:30;11.20;99.90
17489;DHT22;8861;52.644;4.734;2023-02-21T13:31:02;11.10;99.90
17489;DHT22;8861;52.644;4.734;2023-02-21T13:33:48;11.10;99.90
17489;DHT22;8861;52.644;4.734;2023-02-21T13:36:27;11.00;99.90
17489;DHT22;8861;52.644;4.734;2023-02-21T13:39:09;11.00;99.90
17489;DHT22;8861;52.644;4.734;2023-02-21T13:41:42;11.00;99.90
17489;DHT22;8861;52.644;4.734;2023-02-21T13:44:27;10.90;99.90
17489;DHT22;8861;52.644;4.734;2023-02-21T13:47:08;10.90;99.90
17489;DHT22;8861;52.644;4.734;2023-02-21T13:49:45;10.70;99.90
17489;DHT22;8861;52.644;4.734;2023-02-21T13:55:24;10.60;99.90
17489;DHT22;8861;52.644;4.734;2023-02-21T13:58:23;10.40;99.90
17489;DHT22;8861;52.644;4.734;2023-02-21T14:00:56;10.40;99.90
17489;DHT22;8861;52.644;4.734;2023-02-21T14:03:39;10.30;99.90
17489;DHT22;8861;52.644;4.734;2023-02-21T14:09:14;10.30;99.90
17489;DHT22;8861;52.644;4.734;2023-02-21T14:11:45;10.20;99.90
17489;DHT22;8861;52.644;4.734;2023-02-21T14:14:26;10.10;99.90
17489;DHT22;8861;52.644;4.734;2023-02-21T14:17:09;10.10;99.90
17489;DHT22;8861;52.644;4.734;2023-02-21T14:19:54;10.10;99.90
17489;DHT22;8861;52.644;4.734;2023-02-21T14:22:26;10.10;99.90
17489;DHT22;8861;52.644;4.734;2023-02-21T14:25:06;10.10;99.90
17489;DHT22;8861;52.644;4.734;2023-02-21T14:27:36;10.10;99.90
17489;DHT22;8861;52.644;4.734;2023-02-21T14:30:26;10.10;99.90
17489;DHT22;8861;52.644;4.734;2023-02-21T14:32:54;10.10;99.90
17489;DHT22;8861;52.644;4.734;2023-02-21T14:35:30;10.10;99.90
17489;DHT22;8861;52.644;4.734;2023-02-21T14:38:00;10.00;99.90
17489;DHT22;8861;52.644;4.734;2023-02-21T14:40:37;10.00;99.90
17489;DHT22;8861;52.644;4.734;2023-02-21T14:43:23;10.00;99.90
17489;DHT22;8861;52.644;4.734;2023-02-21T14:46:03;9.90;99.90
17489;DHT22;8861;52.644;4.734;2023-02-21T14:48:56;9.90;99.90
17489;DHT22;8861;52.644;4.734;2023-02-21T14:52:01;9.90;99.90
17489;DHT22;8861;52.644;4.734;2023-02-21T14:54:57;9.90;99.90
17489;DHT22;8861;52.644;4.734;2023-02-21T14:58:03;9.80;99.90
17489;DHT22;8861;52.644;4.734;2023-02-21T15:00:39;9.80;99.90
17489;DHT22;8861;52.644;4.734;2023-02-21T15:03:15;9.80;99.90
17489;DHT22;8861;52.644;4.734;2023-02-21T15:05:53;9.80;99.90
17489;DHT22;8861;52.644;4.734;2023-02-21T15:08:26;9.80;99.90
17489;DHT22;8861;52.644;4.734;2023-02-21T15:10:57;9.80;99.90
17489;DHT22;8861;52.644;4.734;2023-02-21T15:13:28;9.80;99.90
17489;DHT22;8861;52.644;4.734;2023-02-21T15:15:58;9.80;99.90
17489;DHT22;8861;52.644;4.734;2023-02-21T15:18:27;9.90;99.90
17489;DHT22;8861;52.644;4.734;2023-02-21T15:21:06;9.80;99.90
17489;DHT22;8861;52.644;4.734;2023-02-21T15:23:33;9.80;99.90
17489;DHT22;8861;52.644;4.734;2023-02-21T15:26:11;9.80;99.90
17489;DHT22;8861;52.644;4.734;2023-02-21T15:28:43;9.70;99.90
17489;DHT22;8861;52.644;4.734;2023-02-21T15:31:11;9.70;99.90
17489;DHT22;8861;52.644;4.734;2023-02-21T15:33:41;9.70;99.90
17489;DHT22;8861;52.644;4.734;2023-02-21T15:36:14;9.70;99.90
17489;DHT22;8861;52.644;4.734;2023-02-21T15:38:46;9.70;99.90
17489;DHT22;8861;52.644;4.734;2023-02-21T15:41:22;9.60;99.90
17489;DHT22;8861;52.644;4.734;2023-02-21T15:43:55;9.60;99.90
17489;DHT22;8861;52.644;4.734;2023-02-21T15:46:46;9.60;99.90
17489;DHT22;8861;52.644;4.734;2023-02-21T15:49:39;9.50;99.90
17489;DHT22;8861;52.644;4.734;2023-02-21T15:52:25;9.50;99.90
17489;DHT22;8861;52.644;4.734;2023-02-21T15:55:11;9.50;99.90
17489;DHT22;8861;52.644;4.734;2023-02-21T15:57:39;9.40;99.90
17489;DHT22;8861;52.644;4.734;2023-02-21T16:00:25;9.40;99.90
17489;DHT22;8861;52.644;4.734;2023-02-21T16:03:30;9.40;99.90
17489;DHT22;8861;52.644;4.734;2023-02-21T16:06:14;9.40;99.90
17489;DHT22;8861;52.644;4.734;2023-02-21T16:08:53;9.40;99.90
17489;DHT22;8861;52.644;4.734;2023-02-21T16:11:25;9.40;99.90
17489;DHT22;8861;52.644;4.734;2023-02-21T16:13:53;9.40;99.90
17489;DHT22;8861;52.644;4.734;2023-02-21T16:16:24;9.40;99.90
17489;DHT22;8861;52.644;4.734;2023-02-21T16:18:55;9.30;99.90
17489;DHT22;8861;52.644;4.734;2023-02-21T16:21:39;9.40;99.90
17489;DHT22;8861;52.644;4.734;2023-02-21T16:24:38;9.40;99.90
17489;DHT22;8861;52.644;4.734;2023-02-21T16:27:16;9.40;99.90
17489;DHT22;8861;52.644;4.734;2023-02-21T16:29:43;9.40;99.90
17489;DHT22;8861;52.644;4.734;2023-02-21T16:32:16;9.30;99.90
17489;DHT22;8861;52.644;4.734;2023-02-21T16:34:44;9.30;99.90
17489;DHT22;8861;52.644;4.734;2023-02-21T16:37:13;9.30;99.90
17489;DHT22;8861;52.644;4.734;2023-02-21T16:39:41;9.30;99.90
17489;DHT22;8861;52.644;4.734;2023-02-21T16:42:08;9.30;99.90
17489;DHT22;8861;52.644;4.734;2023-02-21T16:44:35;9.30;99.90
17489;DHT22;8861;52.644;4.734;2023-02-21T16:47:02;9.30;99.90
17489;DHT22;8861;52.644;4.734;2023-02-21T16:49:31;9.30;99.90
17489;DHT22;8861;52.644;4.734;2023-02-21T16:51:58;9.30;99.90
17489;DHT22;8861;52.644;4.734;2023-02-21T16:54:25;9.30;99.90
17489;DHT22;8861;52.644;4.734;2023-02-21T16:56:52;9.30;99.90
17489;DHT22;8861;52.644;4.734;2023-02-21T16:59:20;9.20;99.90
17489;DHT22;8861;52.644;4.734;2023-02-21T17:01:48;9.20;99.90
17489;DHT22;8861;52.644;4.734;2023-02-21T17:04:17;9.20;99.90
17489;DHT22;8861;52.644;4.734;2023-02-21T17:06:50;9.10;99.90
17489;DHT22;8861;52.644;4.734;2023-02-21T17:09:19;9.20;99.90